Time;durP1;ratioP1;P1;durP2;ratioP2;P2;SDS_P1;SDS_P2;PMS_P1;PMS_P2;Temp;Humidity;BMP_temperature;BMP_pressure;BME280_temperature;BME280_humidity;BME280_pressure;Samples;Min_cycle;Max_cycle;Signal;HPM_P1;HPM_P2
2022/12/07 00:01:24;;;;;;;1.27;0.95;;;;;;;3.06;100.00;102269.03;10444529;28;20049;-83
2022/12/07 00:06:26;;;;;;;1.23;1.13;;;;;;;3.08;100.00;102271.69;10443681;28;20072;-86
2022/12/07 00:11:28;;;;;;;1.23;0.65;;;;;;;3.02;100.00;102267.00;10427065;28;20045;-88
2022/12/07 00:16:32;;;;;;;0.43;0.43;;;;;;;2.96;100.00;102266.50;10443409;28;20052;-86
2022/12/07 00:21:35;;;;;;;1.08;0.98;;;;;;;2.85;100.00;102251.31;10453679;28;20097;-88
2022/12/07 00:26:45;;;;;;;0.17;0.17;;;;;;;2.71;100.00;102244.22;10429063;28;20048;-86
2022/12/07 00:31:47;;;;;;;0.25;0.25;;;;;;;2.53;100.00;102239.44;10415657;28;20141;-86
2022/12/07 00:36:50;;;;;;;0.68;0.68;;;;;;;2.50;100.00;102231.56;10442632;28;20037;-87
2022/12/07 00:41:52;;;;;;;0.55;0.52;;;;;;;2.42;100.00;102222.41;10428514;28;20079;-87
2022/12/07 00:46:54;;;;;;;0.38;0.10;;;;;;;2.21;100.00;102219.94;10442684;28;20065;-87
2022/12/07 00:51:56;;;;;;;1.85;0.63;;;;;;;2.09;100.00;102220.56;10478062;28;20040;-87
2022/12/07 00:56:57;;;;;;;0.05;0.05;;;;;;;2.00;100.00;102223.25;10484515;28;20052;-87
2022/12/07 01:02:01;;;;;;;0.10;0.10;;;;;;;2.02;100.00;102211.56;10475950;28;20045;-87
2022/12/07 01:07:03;;;;;;;0.90;0.43;;;;;;;1.92;100.00;102201.41;10441688;28;20480;-86
2022/12/07 01:12:05;;;;;;;0.85;0.30;;;;;;;1.89;100.00;102195.34;10440896;28;20136;-86
2022/12/07 01:17:07;;;;;;;0.22;0.22;;;;;;;1.77;100.00;102194.31;10424336;28;20056;-86
2022/12/07 01:22:09;;;;;;;0.20;0.20;;;;;;;1.86;100.00;102200.16;10430933;28;20135;-85
2022/12/07 01:27:10;;;;;;;0.05;0.05;;;;;;;1.66;100.00;102197.63;10481794;28;20040;-85
2022/12/07 01:32:12;;;;;;;0.85;0.52;;;;;;;1.63;100.00;102204.97;10468590;28;20091;-86
2022/12/07 01:37:14;;;;;;;0.65;0.40;;;;;;;1.71;100.00;102202.31;10399478;28;20045;-85
2022/12/07 01:42:17;;;;;;;0.00;0.00;;;;;;;1.65;100.00;102195.84;10399364;28;20045;-85
2022/12/07 01:47:19;;;;;;;3.83;2.38;;;;;;;1.52;100.00;102197.38;10420485;28;20044;-85
2022/12/07 01:52:28;;;;;;;0.25;0.25;;;;;;;1.40;100.00;102196.34;10439993;28;20563;-84
2022/12/07 01:57:34;;;;;;;0.55;0.40;;;;;;;1.36;100.00;102184.16;10439880;28;20037;-85
2022/12/07 02:02:43;;;;;;;0.20;0.20;;;;;;;1.43;100.00;102192.41;10440180;28;20091;-85
2022/12/07 02:07:47;;;;;;;0.10;0.10;;;;;;;1.41;100.00;102180.34;10440279;28;20067;-85
2022/12/07 02:12:57;;;;;;;0.15;0.15;;;;;;;1.37;100.00;102185.94;10423165;28;20083;-86
2022/12/07 02:18:09;;;;;;;0.00;0.00;;;;;;;1.36;100.00;102174.00;10439909;28;20100;-85
2022/12/07 02:23:37;;;;;;;0.00;0.00;;;;;;;1.20;100.00;102177.78;10439421;28;20488;-85
2022/12/07 02:29:09;;;;;;;0.00;0.00;;;;;;;1.18;100.00;102184.38;10439199;28;20061;-85
2022/12/07 02:34:36;;;;;;;0.80;0.75;;;;;;;1.25;100.00;102183.25;10439231;28;20053;-85
2022/12/07 02:39:48;;;;;;;0.20;0.20;;;;;;;1.29;100.00;102179.31;10439430;28;20143;-85
2022/12/07 02:44:51;;;;;;;0.00;0.00;;;;;;;1.16;100.00;102179.94;10440716;28;20049;-84
2022/12/07 02:49:53;;;;;;;0.13;0.13;;;;;;;1.13;100.00;102174.56;10406099;28;20492;-85
2022/12/07 02:54:55;;;;;;;0.20;0.20;;;;;;;1.14;100.00;102176.38;10405876;28;20069;-85
2022/12/07 03:00:10;;;;;;;0.20;0.20;;;;;;;0.95;100.00;102182.44;10405944;28;20103;-84
2022/12/07 03:05:37;;;;;;;0.00;0.00;;;;;;;0.95;100.00;102184.97;10405479;28;20095;-84
2022/12/07 03:11:02;;;;;;;0.00;0.00;;;;;;;1.03;100.00;102188.13;10426303;28;20050;-85
2022/12/07 03:16:25;;;;;;;0.22;0.22;;;;;;;1.02;100.00;102179.66;10445631;28;20033;-85
2022/12/07 03:21:37;;;;;;;0.00;0.00;;;;;;;1.00;100.00;102181.16;10429219;28;20060;-85
2022/12/07 03:26:44;;;;;;;0.00;0.00;;;;;;;1.05;100.00;102181.56;10404746;28;20501;-85
2022/12/07 03:31:55;;;;;;;0.00;0.00;;;;;;;1.13;100.00;102179.66;10404869;28;20045;-84
2022/12/07 03:37:03;;;;;;;0.05;0.03;;;;;;;1.10;100.00;102180.28;10404460;28;20504;-84
2022/12/07 03:42:10;;;;;;;0.00;0.00;;;;;;;1.26;100.00;102175.75;10420248;28;20065;-84
2022/12/07 03:47:49;;;;;;;0.10;0.10;;;;;;;1.32;100.00;102172.84;10403504;28;20128;-84
2022/12/07 03:52:57;;;;;;;0.00;0.00;;;;;;;1.47;100.00;102173.22;10423126;28;20131;-85
2022/12/07 03:58:07;;;;;;;0.00;0.00;;;;;;;1.50;100.00;102170.94;10427632;28;20051;-85
2022/12/07 04:03:10;;;;;;;0.20;0.10;;;;;;;1.47;100.00;102168.13;10444097;28;20048;-85
2022/12/07 04:08:12;;;;;;;0.15;0.15;;;;;;;1.43;100.00;102163.59;10443807;28;20048;-86
2022/12/07 04:13:15;;;;;;;0.00;0.00;;;;;;;1.38;100.00;102168.28;10427743;28;20069;-85
2022/12/07 04:18:16;;;;;;;0.00;0.00;;;;;;;1.49;100.00;102156.47;10443749;28;20044;-85
2022/12/07 04:23:18;;;;;;;0.55;0.52;;;;;;;1.54;100.00;102167.88;10443599;28;20049;-85
2022/12/07 04:28:20;;;;;;;0.20;0.20;;;;;;;1.54;100.00;102169.56;10426886;28;20045;-85
2022/12/07 04:33:22;;;;;;;0.00;0.00;;;;;;;1.49;100.00;102161.56;10443000;28;20053;-85
2022/12/07 04:38:23;;;;;;;0.00;0.00;;;;;;;1.40;100.00;102170.94;10427398;28;20053;-84
2022/12/07 04:43:25;;;;;;;0.00;0.00;;;;;;;1.36;100.00;102166.38;10442911;28;20049;-84
2022/12/07 04:48:27;;;;;;;0.00;0.00;;;;;;;1.23;100.00;102161.91;10442562;28;20052;-84
2022/12/07 04:53:29;;;;;;;0.00;0.00;;;;;;;1.16;100.00;102160.50;10443306;28;20534;-85
2022/12/07 04:58:31;;;;;;;1.35;0.30;;;;;;;1.23;100.00;102152.63;10442719;28;20548;-84
2022/12/07 05:03:32;;;;;;;0.05;0.05;;;;;;;1.36;100.00;102154.56;10442260;28;20071;-84
2022/12/07 05:08:34;;;;;;;0.52;0.40;;;;;;;1.19;100.00;102140.47;10424126;28;20051;-84
2022/12/07 05:13:36;;;;;;;0.20;0.20;;;;;;;1.20;100.00;102137.16;10424986;28;20057;-85
2022/12/07 05:18:38;;;;;;;0.00;0.00;;;;;;;1.12;100.00;102137.28;10442062;28;20057;-84
2022/12/07 05:23:40;;;;;;;0.20;0.20;;;;;;;0.95;100.00;102135.09;10441065;28;20041;-82
2022/12/07 05:28:41;;;;;;;0.15;0.13;;;;;;;0.87;100.00;102131.00;10440819;28;20041;-81
2022/12/07 05:33:43;;;;;;;0.00;0.00;;;;;;;0.59;100.00;102128.66;10441107;28;20213;-81
2022/12/07 05:38:45;;;;;;;0.55;0.32;;;;;;;0.72;100.00;102125.53;10443383;28;20051;-82
2022/12/07 05:43:47;;;;;;;0.00;0.00;;;;;;;0.43;100.00;102120.47;10440978;28;20049;-81
2022/12/07 05:48:49;;;;;;;0.00;0.00;;;;;;;0.38;100.00;102122.59;10440146;28;20049;-81
2022/12/07 05:53:50;;;;;;;0.45;0.30;;;;;;;0.36;100.00;102108.94;10423548;28;20053;-81
2022/12/07 06:04:12;;;;;;;0.22;0.22;;;;;;;0.71;100.00;102122.88;10455932;28;20072;-81
2022/12/07 06:09:15;;;;;;;0.00;0.00;;;;;;;0.81;100.00;102117.81;10438967;28;20568;-81
2022/12/07 06:14:19;;;;;;;0.60;0.35;;;;;;;0.85;100.00;102121.50;10439379;28;20055;-82
2022/12/07 06:19:20;;;;;;;0.30;0.30;;;;;;;1.02;100.00;102130.53;10422511;28;20150;-81
2022/12/07 06:24:22;;;;;;;0.30;0.30;;;;;;;1.06;100.00;102132.59;10423972;28;20060;-81
2022/12/07 06:29:24;;;;;;;0.10;0.10;;;;;;;1.08;100.00;102143.75;10439294;28;20060;-82
2022/12/07 06:34:27;;;;;;;0.70;0.50;;;;;;;0.89;100.00;102124.44;10440801;28;20045;-82
2022/12/07 06:39:29;;;;;;;0.08;0.08;;;;;;;0.82;100.00;102126.31;10438922;28;20052;-82
2022/12/07 06:44:31;;;;;;;0.47;0.40;;;;;;;0.74;100.00;102120.56;10440804;28;20099;-82
2022/12/07 06:49:33;;;;;;;0.00;0.00;;;;;;;0.71;100.00;102127.94;10423350;28;20073;-81
2022/12/07 06:54:35;;;;;;;0.32;0.32;;;;;;;0.67;100.00;102125.88;10440094;28;20053;-81
2022/12/07 06:59:37;;;;;;;0.00;0.00;;;;;;;0.56;100.00;102128.38;10440124;28;20408;-80
2022/12/07 07:04:38;;;;;;;0.00;0.00;;;;;;;0.58;100.00;102141.22;10438769;28;20076;-80
2022/12/07 07:09:41;;;;;;;0.10;0.10;;;;;;;0.56;100.00;102141.06;10422642;28;20048;-82
2022/12/07 07:14:43;;;;;;;0.00;0.00;;;;;;;0.54;100.00;102144.22;10438709;28;20099;-81
2022/12/07 07:19:44;;;;;;;1.63;0.50;;;;;;;0.53;100.00;102143.34;10440448;28;20063;-81
2022/12/07 07:24:46;;;;;;;0.00;0.00;;;;;;;0.47;100.00;102147.91;10438687;28;20041;-81
2022/12/07 07:29:51;;;;;;;0.60;0.35;;;;;;;0.37;100.00;102141.16;10438292;28;20045;-85
2022/12/07 07:34:52;;;;;;;0.08;0.08;;;;;;;0.37;100.00;102146.22;10438314;28;20127;-85
2022/12/07 07:39:54;;;;;;;0.80;0.28;;;;;;;0.35;100.00;102146.81;10422145;28;20099;-84
2022/12/07 07:44:56;;;;;;;0.05;0.05;;;;;;;0.31;100.00;102145.66;10437153;28;20036;-85
2022/12/07 07:49:58;;;;;;;0.00;0.00;;;;;;;0.35;100.00;102147.72;10439037;28;20823;-85
2022/12/07 07:54:59;;;;;;;0.00;0.00;;;;;;;0.31;100.00;102151.63;10442218;28;20492;-85
2022/12/07 08:00:08;;;;;;;0.10;0.10;;;;;;;0.39;100.00;102151.41;10444123;28;20091;-84
2022/12/07 08:05:13;;;;;;;3.30;1.00;;;;;;;0.48;100.00;102149.69;10448672;28;20098;-84
2022/12/07 08:10:15;;;;;;;0.03;0.03;;;;;;;0.58;100.00;102159.84;10485729;28;20400;-84
2022/12/07 08:15:17;;;;;;;0.00;0.00;;;;;;;0.60;100.00;102155.81;10423390;28;20072;-84
2022/12/07 08:20:19;;;;;;;0.70;0.47;;;;;;;0.63;100.00;102162.78;10433786;28;20052;-85
2022/12/07 08:25:22;;;;;;;0.28;0.20;;;;;;;0.70;100.00;102166.75;10440676;28;20477;-83
2022/12/07 08:30:23;;;;;;;0.80;0.43;;;;;;;0.86;100.00;102164.75;10430542;28;20049;-85
2022/12/07 08:35:26;;;;;;;0.82;0.25;;;;;;;1.05;100.00;102166.31;10455857;28;20427;-86
2022/12/07 08:40:28;;;;;;;0.17;0.17;;;;;;;1.32;100.00;102182.09;10425081;28;20052;-87
2022/12/07 08:45:35;;;;;;;0.10;0.10;;;;;;;1.63;100.00;102180.50;10441709;28;20039;-86
2022/12/07 08:50:37;;;;;;;0.10;0.10;;;;;;;1.87;100.00;102184.16;10427954;28;20037;-86
2022/12/07 08:55:39;;;;;;;0.00;0.00;;;;;;;2.09;100.00;102183.34;10447430;28;20051;-87
2022/12/07 09:00:41;;;;;;;0.75;0.57;;;;;;;2.10;100.00;102180.03;10441038;28;20045;-86
2022/12/07 09:05:43;;;;;;;0.35;0.30;;;;;;;2.21;100.00;102179.25;10424965;28;20041;-87
2022/12/07 09:10:45;;;;;;;0.10;0.10;;;;;;;2.30;100.00;102181.66;10428716;28;20382;-87
2022/12/07 09:15:51;;;;;;;0.00;0.00;;;;;;;2.44;100.00;102177.66;10426707;28;20051;-87
2022/12/07 09:20:53;;;;;;;0.13;0.13;;;;;;;2.54;100.00;102175.06;10435448;28;20072;-87
2022/12/07 09:26:04;;;;;;;0.17;0.13;;;;;;;2.69;100.00;102164.31;10421749;28;20417;-86
2022/12/07 09:31:18;;;;;;;0.20;0.20;;;;;;;2.75;100.00;102158.84;10437995;28;20051;-87
2022/12/07 09:36:27;;;;;;;0.20;0.20;;;;;;;2.80;100.00;102148.22;10440894;28;20071;-86
2022/12/07 09:41:31;;;;;;;0.30;0.30;;;;;;;2.93;100.00;102142.41;10436406;28;20042;-87
2022/12/07 09:46:42;;;;;;;0.00;0.00;;;;;;;3.21;100.00;102136.00;10436542;28;20131;-86
2022/12/07 09:51:44;;;;;;;0.00;0.00;;;;;;;3.28;100.00;102111.09;10442319;28;20045;-87
2022/12/07 09:56:51;;;;;;;0.00;0.00;;;;;;;3.39;100.00;102096.63;10420305;28;20090;-87
2022/12/07 10:01:55;;;;;;;0.00;0.00;;;;;;;3.48;100.00;102082.00;10424528;28;20116;-87
2022/12/07 10:06:57;;;;;;;0.00;0.00;;;;;;;3.62;100.00;102054.09;10432075;28;20488;-87
2022/12/07 10:12:11;;;;;;;0.00;0.00;;;;;;;3.57;100.00;102042.69;10418878;28;20041;-87
2022/12/07 10:17:34;;;;;;;4.03;0.10;;;;;;;3.90;100.00;102025.53;10433464;28;20526;-87
2022/12/07 10:22:36;;;;;;;0.00;0.00;;;;;;;3.74;100.00;102008.22;10463570;28;20052;-86
2022/12/07 10:27:41;;;;;;;0.00;0.00;;;;;;;3.73;100.00;101991.16;10463044;28;20025;-87
2022/12/07 10:32:43;;;;;;;0.00;0.00;;;;;;;4.14;100.00;101977.91;10485160;28;20392;-87
2022/12/07 10:37:45;;;;;;;0.00;0.00;;;;;;;4.80;100.00;101960.19;10439337;28;20037;-86
2022/12/07 10:43:03;;;;;;;0.00;0.00;;;;;;;5.07;100.00;101921.13;10424341;28;20508;-86
2022/12/07 10:48:18;;;;;;;0.00;0.00;;;;;;;4.74;100.00;101900.25;10426505;28;20045;-87
2022/12/07 10:53:32;;;;;;;0.22;0.10;;;;;;;5.56;100.00;101881.56;10435269;28;20211;-86
2022/12/07 10:59:09;;;;;;;0.00;0.00;;;;;;;6.39;100.00;101849.00;10433591;28;20052;-86
2022/12/07 11:04:36;;;;;;;0.00;0.00;;;;;;;5.58;100.00;101805.00;10440668;28;20051;-86
2022/12/07 11:09:56;;;;;;;0.00;0.00;;;;;;;5.69;100.00;101781.84;10421775;28;20128;-85
2022/12/07 11:15:50;;;;;;;0.00;0.00;;;;;;;5.70;100.00;101757.16;10445944;28;20106;-85
2022/12/07 11:20:58;;;;;;;0.00;0.00;;;;;;;5.34;100.00;101747.34;10445428;28;20057;-86
2022/12/07 11:26:08;;;;;;;0.10;0.10;;;;;;;5.23;100.00;101733.94;10467819;28;20062;-85
2022/12/07 11:31:35;;;;;;;0.00;0.00;;;;;;;5.42;100.00;101749.50;10429162;28;20049;-86
2022/12/07 11:36:46;;;;;;;0.00;0.00;;;;;;;5.31;100.00;101761.63;10433852;28;20052;-86
2022/12/07 11:41:54;;;;;;;0.00;0.00;;;;;;;5.12;100.00;101759.59;10463290;28;20586;-85
2022/12/07 11:47:05;;;;;;;1.33;0.32;;;;;;;4.89;100.00;101748.84;10437656;28;20437;-85
2022/12/07 11:52:33;;;;;;;0.00;0.00;;;;;;;4.91;100.00;101765.13;10436246;28;20064;-85
2022/12/07 11:57:45;;;;;;;0.55;0.15;;;;;;;4.79;100.00;101766.94;10435778;28;20452;-86
2022/12/07 12:03:00;;;;;;;0.68;0.65;;;;;;;5.14;100.00;101770.81;10443669;28;20052;-85
2022/12/07 12:08:18;;;;;;;0.00;0.00;;;;;;;5.77;100.00;101748.19;10444259;28;20045;-86
2022/12/07 12:14:08;;;;;;;0.22;0.20;;;;;;;6.64;100.00;101715.59;10425611;28;20568;-87
2022/12/07 12:19:53;;;;;;;0.00;0.00;;;;;;;5.96;100.00;101656.38;10435222;28;20041;-87
2022/12/07 12:24:56;;;;;;;0.65;0.65;;;;;;;6.32;100.00;101636.22;10416174;28;20100;-86
2022/12/07 12:30:30;;;;;;;0.30;0.30;;;;;;;5.57;100.00;101645.59;10438605;28;20051;-89
2022/12/07 12:35:37;;;;;;;0.63;0.63;;;;;;;5.50;100.00;101666.50;10405631;28;20045;-89
2022/12/07 12:40:44;;;;;;;0.00;0.00;;;;;;;5.41;100.00;101687.28;10445991;28;20071;-87
2022/12/07 12:46:29;;;;;;;0.00;0.00;;;;;;;5.69;100.00;101700.03;10444747;28;20044;-87
2022/12/07 12:51:39;;;;;;;0.35;0.35;;;;;;;5.76;100.00;101685.03;10447515;28;20508;-88
2022/12/07 12:57:08;;;;;;;2.38;0.43;;;;;;;6.67;100.00;101655.19;10486962;28;20051;-87
2022/12/07 13:02:28;;;;;;;16.00;0.77;;;;;;;6.84;100.00;101611.66;10410087;28;20069;-88
2022/12/07 13:07:55;;;;;;;0.63;0.17;;;;;;;6.07;100.00;101605.84;10438172;28;20128;-87
2022/12/07 13:13:18;;;;;;;0.00;0.00;;;;;;;6.55;100.00;101587.97;10435730;28;20430;-88
2022/12/07 13:18:32;;;;;;;0.00;0.00;;;;;;;6.32;100.00;101577.38;10446933;28;20064;-88
2022/12/07 13:23:59;;;;;;;0.00;0.00;;;;;;;5.98;100.00;101570.38;10421454;28;20068;-88
2022/12/07 13:29:20;;;;;;;0.03;0.03;;;;;;;6.89;100.00;101548.72;10439847;28;20049;-89
2022/12/07 13:34:31;;;;;;;0.00;0.00;;;;;;;7.26;100.00;101526.66;10434766;28;20439;-88
2022/12/07 13:39:35;;;;;;;0.03;0.03;;;;;;;6.88;100.00;101498.34;10433547;28;20067;-90
2022/12/07 13:44:40;;;;;;;0.45;0.30;;;;;;;6.06;100.00;101500.88;10429293;28;20045;-89
2022/12/07 13:49:55;;;;;;;0.00;0.00;;;;;;;6.42;100.00;101490.84;10414733;28;20045;-89
2022/12/07 13:54:58;;;;;;;0.00;0.00;;;;;;;6.00;100.00;101492.06;10417598;28;20084;-89
2022/12/07 14:00:04;;;;;;;1.17;0.52;;;;;;;5.67;100.00;101484.31;10425913;28;20057;-87
2022/12/07 14:05:13;;;;;;;0.00;0.00;;;;;;;5.45;100.00;101484.75;10437062;28;20094;-89
2022/12/07 14:10:27;;;;;;;0.05;0.05;;;;;;;5.34;100.00;101491.81;10423663;28;20488;-88
2022/12/07 14:15:33;;;;;;;0.98;0.60;;;;;;;5.25;100.00;101501.50;10418243;28;20258;-89
2022/12/07 14:20:37;;;;;;;0.00;0.00;;;;;;;5.20;100.00;101513.16;10446690;28;20060;-89
2022/12/07 14:25:47;;;;;;;0.00;0.00;;;;;;;5.12;100.00;101529.72;10450181;28;20607;-88
2022/12/07 14:30:53;;;;;;;0.25;0.25;;;;;;;4.99;100.00;101538.34;10420128;28;20132;-88
2022/12/07 14:35:57;;;;;;;0.00;0.00;;;;;;;4.90;100.00;101543.78;10430066;28;20477;-87
2022/12/07 14:41:50;;;;;;;0.00;0.00;;;;;;;4.79;100.00;101562.69;10415046;28;20045;-87
2022/12/07 14:46:28;;;;;;;0.03;0.03;;;;;;;4.76;100.00;101574.47;10426000;28;20045;-81
2022/12/07 14:51:31;;;;;;;0.53;0.30;;;;;;;4.53;100.00;101595.16;10431693;28;20084;-82
2022/12/07 14:56:54;;;;;;;1.55;0.22;;;;;;;4.52;100.00;101604.50;10420640;28;20201;-82
2022/12/07 15:01:56;;;;;;;0.00;0.00;;;;;;;4.43;100.00;101607.34;10453070;28;20073;-81
2022/12/07 15:07:04;;;;;;;0.00;0.00;;;;;;;4.37;100.00;101616.31;10450402;28;20041;-81
2022/12/07 15:12:06;;;;;;;0.00;0.00;;;;;;;4.36;100.00;101630.72;10430264;28;20049;-81
2022/12/07 15:17:11;;;;;;;1.90;1.75;;;;;;;4.29;100.00;101633.66;10413815;28;20503;-81
2022/12/07 15:22:33;;;;;;;0.00;0.00;;;;;;;4.19;100.00;101632.19;10443937;28;20020;-80
2022/12/07 15:27:39;;;;;;;0.10;0.10;;;;;;;4.18;100.00;101644.88;10498824;28;20051;-81
2022/12/07 15:32:41;;;;;;;0.10;0.10;;;;;;;4.20;100.00;101653.50;10436226;28;20120;-81
2022/12/07 15:37:42;;;;;;;0.03;0.03;;;;;;;4.02;100.00;101627.72;10454283;28;20075;-81
2022/12/07 15:42:44;;;;;;;0.00;0.00;;;;;;;3.91;100.00;101634.66;10444026;28;20040;-81
2022/12/07 15:47:46;;;;;;;0.00;0.00;;;;;;;3.65;100.00;101636.38;10427206;28;20091;-81
2022/12/07 15:53:08;;;;;;;0.00;0.00;;;;;;;3.39;100.00;101647.41;10425198;28;20049;-81
2022/12/07 15:58:10;;;;;;;0.52;0.13;;;;;;;3.22;100.00;101676.81;10427436;28;20073;-81
2022/12/07 16:03:12;;;;;;;0.00;0.00;;;;;;;3.12;100.00;101672.78;10413847;28;20458;-80
2022/12/07 16:08:13;;;;;;;0.20;0.20;;;;;;;2.98;100.00;101679.44;10423744;28;20048;-80
2022/12/07 16:13:15;;;;;;;0.35;0.10;;;;;;;2.84;100.00;101670.84;10421077;28;20041;-80
2022/12/07 16:18:17;;;;;;;0.70;0.43;;;;;;;2.81;100.00;101673.19;10431239;28;20045;-80
2022/12/07 16:23:18;;;;;;;0.00;0.00;;;;;;;2.83;100.00;101675.06;10444495;28;20499;-80
2022/12/07 16:28:20;;;;;;;0.00;0.00;;;;;;;2.68;100.00;101668.91;10456551;28;20381;-81
2022/12/07 16:33:21;;;;;;;0.13;0.13;;;;;;;2.65;100.00;101669.56;10456533;28;20045;-80
2022/12/07 16:38:23;;;;;;;0.00;0.00;;;;;;;2.64;100.00;101677.97;10427696;28;20100;-80
2022/12/07 16:43:25;;;;;;;0.65;0.65;;;;;;;2.66;100.00;101675.53;10428111;28;20561;-80
2022/12/07 16:48:29;;;;;;;0.00;0.00;;;;;;;2.74;100.00;101683.72;10440158;28;20500;-80
2022/12/07 16:53:31;;;;;;;0.00;0.00;;;;;;;2.76;100.00;101680.50;10419731;28;20083;-80
2022/12/07 16:58:32;;;;;;;0.00;0.00;;;;;;;2.82;100.00;101678.38;10413931;28;20401;-80
2022/12/07 17:03:34;;;;;;;0.00;0.00;;;;;;;2.87;100.00;101671.06;10426824;28;20057;-81
2022/12/07 17:08:36;;;;;;;0.00;0.00;;;;;;;2.94;100.00;101667.31;10423146;28;20049;-81
2022/12/07 17:19:07;;;;;;;0.00;0.00;;;;;;;3.01;100.00;101669.50;10441165;28;20045;-79
2022/12/07 17:24:12;;;;;;;0.00;0.00;;;;;;;2.98;100.00;101664.16;10431358;28;20131;-80
2022/12/07 17:29:17;;;;;;;0.00;0.00;;;;;;;2.96;100.00;101660.63;10399930;28;20045;-80
2022/12/07 17:34:22;;;;;;;0.00;0.00;;;;;;;2.88;100.00;101662.66;10440636;28;20076;-80
2022/12/07 17:39:24;;;;;;;0.00;0.00;;;;;;;2.83;100.00;101654.69;10438928;28;20049;-80
2022/12/07 17:44:27;;;;;;;0.50;0.45;;;;;;;2.77;100.00;101644.09;10439689;28;20040;-80
2022/12/07 17:49:28;;;;;;;0.00;0.00;;;;;;;2.68;100.00;101638.38;10452712;28;20459;-80
2022/12/07 17:54:30;;;;;;;3.38;0.35;;;;;;;2.53;100.00;101633.97;10465283;28;20041;-88
2022/12/07 17:59:32;;;;;;;0.00;0.00;;;;;;;2.48;100.00;101626.78;10459189;28;20044;-88
2022/12/07 18:04:36;;;;;;;0.00;0.00;;;;;;;2.33;100.00;101622.38;10463387;28;20065;-87
2022/12/07 18:09:37;;;;;;;0.00;0.00;;;;;;;2.32;100.00;101627.38;10428634;28;20029;-88
2022/12/07 18:14:39;;;;;;;0.00;0.00;;;;;;;2.30;100.00;101634.00;10434570;28;20053;-88
2022/12/07 18:19:41;;;;;;;0.00;0.00;;;;;;;2.25;100.00;101632.81;10433787;28;20045;-88
2022/12/07 18:24:43;;;;;;;0.00;0.00;;;;;;;2.17;100.00;101633.13;10422450;28;20139;-87
2022/12/07 18:29:44;;;;;;;0.45;0.45;;;;;;;2.25;100.00;101632.81;10432897;28;20055;-88
2022/12/07 18:34:46;;;;;;;0.00;0.00;;;;;;;2.30;100.00;101626.38;10412039;28;20100;-87
2022/12/07 18:39:49;;;;;;;0.43;0.25;;;;;;;2.29;100.00;101622.06;10413004;28;20049;-88
2022/12/07 18:44:50;;;;;;;0.05;0.05;;;;;;;2.29;100.00;101628.03;10435567;28;20514;-88
2022/12/07 18:49:52;;;;;;;0.60;0.43;;;;;;;2.29;100.00;101627.16;10422381;28;20045;-87
2022/12/07 18:54:54;;;;;;;0.10;0.10;;;;;;;2.26;100.00;101626.94;10396037;28;20049;-87
2022/12/07 18:59:55;;;;;;;0.00;0.00;;;;;;;2.32;100.00;101632.47;10410158;28;20049;-88
2022/12/07 19:04:57;;;;;;;0.80;0.55;;;;;;;2.37;100.00;101638.75;10420724;28;20411;-87
2022/12/07 19:09:59;;;;;;;0.32;0.32;;;;;;;2.36;100.00;101642.06;10439728;28;20044;-87
2022/12/07 19:15:02;;;;;;;0.20;0.20;;;;;;;2.33;100.00;101640.19;10414527;28;20489;-83
2022/12/07 19:20:06;;;;;;;2.13;1.02;;;;;;;2.30;100.00;101642.53;10437964;28;20539;-82
2022/12/07 19:25:08;;;;;;;0.20;0.15;;;;;;;2.30;100.00;101646.72;10450133;28;20041;-82
2022/12/07 19:30:10;;;;;;;0.25;0.15;;;;;;;2.34;100.00;101651.25;10440513;28;20063;-83
2022/12/07 19:35:12;;;;;;;0.00;0.00;;;;;;;2.40;100.00;101646.59;10433217;28;20136;-82
2022/12/07 19:40:13;;;;;;;0.13;0.13;;;;;;;2.39;100.00;101639.75;10444272;28;20045;-81
2022/12/07 19:45:15;;;;;;;0.10;0.10;;;;;;;2.41;100.00;101630.56;10469558;28;20382;-80
2022/12/07 19:50:17;;;;;;;0.55;0.35;;;;;;;2.45;100.00;101622.38;10437832;28;20088;-82
2022/12/07 19:55:23;;;;;;;0.00;0.00;;;;;;;2.46;100.00;101623.25;10459507;28;20439;-80
2022/12/07 20:00:24;;;;;;;0.32;0.10;;;;;;;2.42;100.00;101619.59;10423418;28;20100;-81
2022/12/07 20:05:26;;;;;;;0.00;0.00;;;;;;;2.41;100.00;101617.88;10428492;28;20083;-80
2022/12/07 20:10:28;;;;;;;0.63;0.45;;;;;;;2.42;100.00;101614.50;10421177;28;20615;-81
2022/12/07 20:15:29;;;;;;;0.43;0.43;;;;;;;2.43;100.00;101606.13;10440183;28;20040;-81
2022/12/07 20:20:31;;;;;;;0.32;0.28;;;;;;;2.44;100.00;101597.72;10455975;28;20040;-81
2022/12/07 20:25:36;;;;;;;0.20;0.10;;;;;;;2.48;100.00;101598.81;10471517;28;20041;-81
2022/12/07 20:30:48;;;;;;;0.00;0.00;;;;;;;2.45;100.00;101584.22;10454879;28;20048;-80
2022/12/07 20:35:50;;;;;;;0.13;0.13;;;;;;;2.45;100.00;101568.97;10452923;28;20557;-79
2022/12/07 20:40:52;;;;;;;0.45;0.30;;;;;;;2.51;100.00;101563.44;10439268;28;20377;-80
2022/12/07 20:45:56;;;;;;;0.50;0.50;;;;;;;2.49;100.00;101549.72;10454041;28;20484;-81
2022/12/07 20:51:04;;;;;;;0.05;0.05;;;;;;;2.47;100.00;101547.06;10452749;28;20037;-80
2022/12/07 20:56:16;;;;;;;0.13;0.13;;;;;;;2.44;100.00;101530.72;10439364;28;20052;-80
2022/12/07 21:01:18;;;;;;;0.55;0.40;;;;;;;2.40;100.00;101532.16;10442319;28;20041;-80
2022/12/07 21:06:20;;;;;;;0.10;0.10;;;;;;;2.38;100.00;101526.09;10433219;28;20139;-81
2022/12/07 21:11:22;;;;;;;1.63;0.68;;;;;;;2.35;100.00;101513.13;10451561;28;20049;-80
2022/12/07 21:16:27;;;;;;;0.00;0.00;;;;;;;2.34;100.00;101513.94;10417052;28;20045;-80
2022/12/07 21:21:30;;;;;;;0.10;0.10;;;;;;;2.31;100.00;101518.81;10437461;28;20090;-80
2022/12/07 21:26:34;;;;;;;0.25;0.25;;;;;;;2.35;100.00;101510.59;10438017;28;20056;-80
2022/12/07 21:31:36;;;;;;;0.40;0.40;;;;;;;2.42;100.00;101517.00;10431532;28;20400;-80
2022/12/07 21:36:37;;;;;;;0.15;0.15;;;;;;;2.41;100.00;101502.50;10427463;28;20048;-80
2022/12/07 21:41:40;;;;;;;0.68;0.65;;;;;;;2.46;100.00;101509.69;10437643;28;20103;-80
2022/12/07 21:46:42;;;;;;;0.15;0.15;;;;;;;2.48;100.00;101503.06;10422895;28;20563;-80
2022/12/07 21:51:43;;;;;;;0.10;0.10;;;;;;;2.49;100.00;101515.00;10423104;28;20080;-80
2022/12/07 21:56:45;;;;;;;1.67;1.30;;;;;;;2.53;100.00;101511.88;10440032;28;20087;-82
2022/12/07 22:01:48;;;;;;;0.43;0.20;;;;;;;2.50;100.00;101501.47;10439980;28;20091;-82
2022/12/07 22:06:51;;;;;;;2.55;1.35;;;;;;;2.42;100.00;101497.53;10439501;28;20052;-83
2022/12/07 22:11:53;;;;;;;0.70;0.70;;;;;;;2.40;100.00;101509.28;10439062;28;20048;-82
2022/12/07 22:16:56;;;;;;;0.60;0.22;;;;;;;2.40;100.00;101510.91;10456976;28;20131;-82
2022/12/07 22:21:58;;;;;;;2.92;0.82;;;;;;;2.39;100.00;101515.13;10439141;28;20041;-83
2022/12/07 22:27:00;;;;;;;1.02;1.02;;;;;;;2.48;100.00;101512.34;10438947;28;20052;-83
2022/12/07 22:32:02;;;;;;;0.50;0.45;;;;;;;2.44;100.00;101511.25;10439420;28;20060;-83
2022/12/07 22:37:24;;;;;;;0.10;0.10;;;;;;;2.42;100.00;101507.69;10442141;28;20040;-82
2022/12/07 22:42:26;;;;;;;0.20;0.20;;;;;;;2.38;100.00;101503.19;10439969;28;20504;-83
2022/12/07 22:47:28;;;;;;;0.32;0.25;;;;;;;2.33;100.00;101507.09;10455225;28;20064;-83
2022/12/07 22:52:29;;;;;;;0.30;0.30;;;;;;;2.29;100.00;101497.47;10439314;28;20053;-82
2022/12/07 22:57:31;;;;;;;0.22;0.22;;;;;;;2.31;100.00;101489.16;10438391;28;20048;-82
2022/12/07 23:02:33;;;;;;;1.17;0.63;;;;;;;2.21;100.00;101481.69;10442108;28;20120;-83
2022/12/07 23:07:34;;;;;;;0.98;0.30;;;;;;;2.16;100.00;101471.22;10446893;28;20045;-82
2022/12/07 23:17:56;;;;;;;0.20;0.20;;;;;;;2.07;100.00;101455.31;10462528;28;20422;-83
2022/12/07 23:22:58;;;;;;;0.10;0.10;;;;;;;1.90;100.00;101452.47;10445778;28;20045;-83
2022/12/07 23:27:59;;;;;;;3.25;0.60;;;;;;;1.99;100.00;101448.81;10445655;28;20072;-83
2022/12/07 23:33:01;;;;;;;0.63;0.50;;;;;;;1.89;100.00;101458.34;10463107;28;20473;-82
2022/12/07 23:38:03;;;;;;;0.00;0.00;;;;;;;1.84;100.00;101459.66;10445403;28;20045;-82
2022/12/07 23:43:05;;;;;;;0.22;0.22;;;;;;;1.68;100.00;101447.56;10428987;28;20053;-82